sensor_id;sensor_type;location;lat;lon;timestamp;temperature;humidity
16785;DHT22;8509;52.178;5.404;2023-05-15T00:01:36;12.70;99.90
16785;DHT22;8509;52.178;5.404;2023-05-15T00:04:01;12.60;99.90
16785;DHT22;8509;52.178;5.404;2023-05-15T00:06:27;12.60;99.90
16785;DHT22;8509;52.178;5.404;2023-05-15T00:08:53;12.50;99.90
16785;DHT22;8509;52.178;5.404;2023-05-15T00:11:18;12.50;99.90
16785;DHT22;8509;52.178;5.404;2023-05-15T00:13:45;12.40;99.90
16785;DHT22;8509;52.178;5.404;2023-05-15T00:16:11;12.40;99.90
16785;DHT22;8509;52.178;5.404;2023-05-15T00:18:37;12.40;99.90
16785;DHT22;8509;52.178;5.404;2023-05-15T00:21:03;12.40;99.90
16785;DHT22;8509;52.178;5.404;2023-05-15T00:23:28;12.40;99.90
16785;DHT22;8509;52.178;5.404;2023-05-15T00:25:54;12.30;99.90
16785;DHT22;8509;52.178;5.404;2023-05-15T00:28:19;12.30;99.90
16785;DHT22;8509;52.178;5.404;2023-05-15T00:30:45;12.20;99.90
16785;DHT22;8509;52.178;5.404;2023-05-15T00:33:11;12.20;99.90
16785;DHT22;8509;52.178;5.404;2023-05-15T00:35:36;12.20;99.90
16785;DHT22;8509;52.178;5.404;2023-05-15T00:38:02;12.20;99.90
16785;DHT22;8509;52.178;5.404;2023-05-15T00:40:28;12.10;99.90
16785;DHT22;8509;52.178;5.404;2023-05-15T00:42:56;12.10;99.90
16785;DHT22;8509;52.178;5.404;2023-05-15T00:45:23;12.10;99.90
16785;DHT22;8509;52.178;5.404;2023-05-15T00:47:50;12.00;99.90
16785;DHT22;8509;52.178;5.404;2023-05-15T00:50:16;11.90;99.90
16785;DHT22;8509;52.178;5.404;2023-05-15T00:52:42;12.10;99.90
16785;DHT22;8509;52.178;5.404;2023-05-15T00:55:08;12.10;99.90
16785;DHT22;8509;52.178;5.404;2023-05-15T00:57:34;12.00;99.90
16785;DHT22;8509;52.178;5.404;2023-05-15T01:00:01;12.10;99.90
16785;DHT22;8509;52.178;5.404;2023-05-15T01:02:28;12.10;99.90
16785;DHT22;8509;52.178;5.404;2023-05-15T01:04:54;11.90;99.90
16785;DHT22;8509;52.178;5.404;2023-05-15T01:07:19;11.90;99.90
16785;DHT22;8509;52.178;5.404;2023-05-15T01:09:46;11.90;99.90
16785;DHT22;8509;52.178;5.404;2023-05-15T01:12:14;11.80;99.90
16785;DHT22;8509;52.178;5.404;2023-05-15T01:14:41;11.80;99.90
16785;DHT22;8509;52.178;5.404;2023-05-15T01:17:08;11.70;99.90
16785;DHT22;8509;52.178;5.404;2023-05-15T01:19:34;11.70;99.90
16785;DHT22;8509;52.178;5.404;2023-05-15T01:22:32;11.70;99.90
16785;DHT22;8509;52.178;5.404;2023-05-15T01:28:25;11.70;99.90
16785;DHT22;8509;52.178;5.404;2023-05-15T01:30:55;11.70;99.90
16785;DHT22;8509;52.178;5.404;2023-05-15T01:33:28;11.60;99.90
16785;DHT22;8509;52.178;5.404;2023-05-15T01:36:13;11.60;99.90
16785;DHT22;8509;52.178;5.404;2023-05-15T01:38:51;11.60;99.90
16785;DHT22;8509;52.178;5.404;2023-05-15T01:44:06;11.40;99.90
16785;DHT22;8509;52.178;5.404;2023-05-15T01:46:37;11.40;99.90
16785;DHT22;8509;52.178;5.404;2023-05-15T01:49:06;11.30;99.90
16785;DHT22;8509;52.178;5.404;2023-05-15T01:51:35;11.30;99.90
16785;DHT22;8509;52.178;5.404;2023-05-15T01:54:02;11.20;99.90
16785;DHT22;8509;52.178;5.404;2023-05-15T01:56:30;11.20;99.90
16785;DHT22;8509;52.178;5.404;2023-05-15T01:58:56;11.30;99.90
16785;DHT22;8509;52.178;5.404;2023-05-15T02:01:26;11.40;99.90
16785;DHT22;8509;52.178;5.404;2023-05-15T02:03:53;11.60;99.90
16785;DHT22;8509;52.178;5.404;2023-05-15T02:06:20;11.60;99.90
16785;DHT22;8509;52.178;5.404;2023-05-15T02:08:47;11.80;99.90
16785;DHT22;8509;52.178;5.404;2023-05-15T02:11:14;11.80;99.90
16785;DHT22;8509;52.178;5.404;2023-05-15T02:13:41;11.80;99.90
16785;DHT22;8509;52.178;5.404;2023-05-15T02:16:07;11.90;99.90
16785;DHT22;8509;52.178;5.404;2023-05-15T02:18:33;12.00;99.90
16785;DHT22;8509;52.178;5.404;2023-05-15T02:20:59;11.90;99.90
16785;DHT22;8509;52.178;5.404;2023-05-15T02:23:27;12.10;99.90
16785;DHT22;8509;52.178;5.404;2023-05-15T02:32:25;12.20;99.90
16785;DHT22;8509;52.178;5.404;2023-05-15T02:35:31;12.20;99.90
16785;DHT22;8509;52.178;5.404;2023-05-15T02:38:12;12.10;99.90
16785;DHT22;8509;52.178;5.404;2023-05-15T02:40:39;12.10;99.90
16785;DHT22;8509;52.178;5.404;2023-05-15T02:43:06;12.00;99.90
16785;DHT22;8509;52.178;5.404;2023-05-15T02:45:33;12.00;99.90
16785;DHT22;8509;52.178;5.404;2023-05-15T02:48:01;11.90;99.90
16785;DHT22;8509;52.178;5.404;2023-05-15T02:50:28;12.10;99.90
16785;DHT22;8509;52.178;5.404;2023-05-15T02:53:06;12.10;99.90
16785;DHT22;8509;52.178;5.404;2023-05-15T02:55:33;12.10;99.90
16785;DHT22;8509;52.178;5.404;2023-05-15T02:57:58;12.20;99.90
16785;DHT22;8509;52.178;5.404;2023-05-15T03:00:24;12.10;99.90
16785;DHT22;8509;52.178;5.404;2023-05-15T03:02:50;12.10;99.90
16785;DHT22;8509;52.178;5.404;2023-05-15T03:05:16;12.10;99.90
16785;DHT22;8509;52.178;5.404;2023-05-15T03:07:41;12.10;99.90
16785;DHT22;8509;52.178;5.404;2023-05-15T03:10:08;12.10;99.90
16785;DHT22;8509;52.178;5.404;2023-05-15T03:12:34;12.10;99.90
16785;DHT22;8509;52.178;5.404;2023-05-15T03:15:00;12.10;99.90
16785;DHT22;8509;52.178;5.404;2023-05-15T03:17:26;12.10;99.90
16785;DHT22;8509;52.178;5.404;2023-05-15T03:19:51;12.10;99.90
16785;DHT22;8509;52.178;5.404;2023-05-15T03:22:17;12.10;99.90
16785;DHT22;8509;52.178;5.404;2023-05-15T03:24:43;12.10;99.90
16785;DHT22;8509;52.178;5.404;2023-05-15T03:27:09;12.10;99.90
16785;DHT22;8509;52.178;5.404;2023-05-15T03:29:34;12.20;99.90
16785;DHT22;8509;52.178;5.404;2023-05-15T03:32:00;12.10;99.90
16785;DHT22;8509;52.178;5.404;2023-05-15T03:34:25;12.20;99.90
16785;DHT22;8509;52.178;5.404;2023-05-15T03:36:51;12.10;99.90
16785;DHT22;8509;52.178;5.404;2023-05-15T03:39:17;12.10;99.90
16785;DHT22;8509;52.178;5.404;2023-05-15T03:41:42;12.10;99.90
16785;DHT22;8509;52.178;5.404;2023-05-15T03:44:08;12.20;99.90
16785;DHT22;8509;52.178;5.404;2023-05-15T03:46:33;12.10;99.90
16785;DHT22;8509;52.178;5.404;2023-05-15T03:49:00;12.10;99.90
16785;DHT22;8509;52.178;5.404;2023-05-15T03:51:26;12.10;99.90
16785;DHT22;8509;52.178;5.404;2023-05-15T03:53:52;12.10;99.90
16785;DHT22;8509;52.178;5.404;2023-05-15T03:56:18;12.00;99.90
16785;DHT22;8509;52.178;5.404;2023-05-15T03:58:44;12.00;99.90
16785;DHT22;8509;52.178;5.404;2023-05-15T04:01:10;12.00;99.90
16785;DHT22;8509;52.178;5.404;2023-05-15T04:03:35;12.00;99.90
16785;DHT22;8509;52.178;5.404;2023-05-15T04:06:01;12.10;99.90
16785;DHT22;8509;52.178;5.404;2023-05-15T04:08:26;12.00;99.90
16785;DHT22;8509;52.178;5.404;2023-05-15T04:10:52;11.90;99.90
16785;DHT22;8509;52.178;5.404;2023-05-15T04:13:18;11.90;99.90
16785;DHT22;8509;52.178;5.404;2023-05-15T04:15:44;11.90;99.90
16785;DHT22;8509;52.178;5.404;2023-05-15T04:18:10;11.90;99.90
16785;DHT22;8509;52.178;5.404;2023-05-15T04:20:35;11.80;99.90
16785;DHT22;8509;52.178;5.404;2023-05-15T04:23:01;11.90;99.90
16785;DHT22;8509;52.178;5.404;2023-05-15T04:25:28;11.80;99.90
16785;DHT22;8509;52.178;5.404;2023-05-15T04:27:54;11.70;99.90
16785;DHT22;8509;52.178;5.404;2023-05-15T04:30:20;11.80;99.90
16785;DHT22;8509;52.178;5.404;2023-05-15T04:32:46;11.70;99.90
16785;DHT22;8509;52.178;5.404;2023-05-15T04:35:11;11.90;99.90
16785;DHT22;8509;52.178;5.404;2023-05-15T04:37:39;11.90;99.90
16785;DHT22;8509;52.178;5.404;2023-05-15T04:40:06;11.90;99.90
16785;DHT22;8509;52.178;5.404;2023-05-15T04:42:32;11.80;99.90
16785;DHT22;8509;52.178;5.404;2023-05-15T04:44:58;11.80;99.90
16785;DHT22;8509;52.178;5.404;2023-05-15T04:47:24;11.80;99.90
16785;DHT22;8509;52.178;5.404;2023-05-15T04:49:50;12.00;99.90
16785;DHT22;8509;52.178;5.404;2023-05-15T04:52:16;12.00;99.90
16785;DHT22;8509;52.178;5.404;2023-05-15T04:54:41;12.10;99.90
16785;DHT22;8509;52.178;5.404;2023-05-15T04:57:07;12.10;99.90
16785;DHT22;8509;52.178;5.404;2023-05-15T04:59:33;12.00;99.90
16785;DHT22;8509;52.178;5.404;2023-05-15T05:02:00;12.20;99.90
16785;DHT22;8509;52.178;5.404;2023-05-15T05:04:25;12.30;99.90
16785;DHT22;8509;52.178;5.404;2023-05-15T05:06:51;12.40;99.90
16785;DHT22;8509;52.178;5.404;2023-05-15T05:09:18;12.60;99.90
16785;DHT22;8509;52.178;5.404;2023-05-15T05:11:44;12.60;99.90
16785;DHT22;8509;52.178;5.404;2023-05-15T05:14:10;12.60;99.90
16785;DHT22;8509;52.178;5.404;2023-05-15T05:16:36;12.70;99.90
16785;DHT22;8509;52.178;5.404;2023-05-15T05:19:02;12.70;99.90
16785;DHT22;8509;52.178;5.404;2023-05-15T05:21:28;12.90;99.90
16785;DHT22;8509;52.178;5.404;2023-05-15T05:23:54;13.00;99.90
16785;DHT22;8509;52.178;5.404;2023-05-15T05:26:20;13.20;99.90
16785;DHT22;8509;52.178;5.404;2023-05-15T05:28:46;13.40;99.90
16785;DHT22;8509;52.178;5.404;2023-05-15T05:31:12;13.70;99.90
16785;DHT22;8509;52.178;5.404;2023-05-15T05:33:38;14.00;99.90
16785;DHT22;8509;52.178;5.404;2023-05-15T05:36:04;14.10;99.90
16785;DHT22;8509;52.178;5.404;2023-05-15T05:38:30;14.50;99.90
16785;DHT22;8509;52.178;5.404;2023-05-15T05:40:56;14.90;99.90
16785;DHT22;8509;52.178;5.404;2023-05-15T05:43:24;15.50;99.90
16785;DHT22;8509;52.178;5.404;2023-05-15T05:45:50;16.10;99.90
16785;DHT22;8509;52.178;5.404;2023-05-15T05:48:15;16.80;99.90
16785;DHT22;8509;52.178;5.404;2023-05-15T05:50:41;17.00;99.90
16785;DHT22;8509;52.178;5.404;2023-05-15T05:53:06;17.10;99.90
16785;DHT22;8509;52.178;5.404;2023-05-15T05:55:32;16.90;99.90
16785;DHT22;8509;52.178;5.404;2023-05-15T05:57:57;16.80;99.90
16785;DHT22;8509;52.178;5.404;2023-05-15T06:00:24;17.20;99.90
16785;DHT22;8509;52.178;5.404;2023-05-15T06:02:55;17.30;99.90
16785;DHT22;8509;52.178;5.404;2023-05-15T06:05:20;17.50;99.90
16785;DHT22;8509;52.178;5.404;2023-05-15T06:07:47;17.80;99.90
16785;DHT22;8509;52.178;5.404;2023-05-15T06:10:13;18.40;99.90
16785;DHT22;8509;52.178;5.404;2023-05-15T06:12:39;19.20;99.90
16785;DHT22;8509;52.178;5.404;2023-05-15T06:15:05;19.50;99.90
16785;DHT22;8509;52.178;5.404;2023-05-15T06:17:31;19.30;99.90
16785;DHT22;8509;52.178;5.404;2023-05-15T06:19:57;19.20;99.90
16785;DHT22;8509;52.178;5.404;2023-05-15T06:22:22;19.00;99.90
16785;DHT22;8509;52.178;5.404;2023-05-15T06:24:49;19.40;99.90
16785;DHT22;8509;52.178;5.404;2023-05-15T06:27:15;19.70;99.90
16785;DHT22;8509;52.178;5.404;2023-05-15T06:29:41;20.40;99.90
16785;DHT22;8509;52.178;5.404;2023-05-15T06:32:06;21.00;99.90
16785;DHT22;8509;52.178;5.404;2023-05-15T06:34:32;21.70;99.90
16785;DHT22;8509;52.178;5.404;2023-05-15T06:36:58;21.80;99.90
16785;DHT22;8509;52.178;5.404;2023-05-15T06:39:24;22.00;99.90
16785;DHT22;8509;52.178;5.404;2023-05-15T06:41:50;21.80;99.90
16785;DHT22;8509;52.178;5.404;2023-05-15T06:44:18;21.60;99.90
16785;DHT22;8509;52.178;5.404;2023-05-15T06:46:43;21.80;99.90
16785;DHT22;8509;52.178;5.404;2023-05-15T06:49:09;21.60;99.90
16785;DHT22;8509;52.178;5.404;2023-05-15T06:51:35;21.80;99.90
16785;DHT22;8509;52.178;5.404;2023-05-15T06:54:00;22.80;99.90
16785;DHT22;8509;52.178;5.404;2023-05-15T06:56:26;23.50;99.90
16785;DHT22;8509;52.178;5.404;2023-05-15T06:58:51;23.40;99.90
16785;DHT22;8509;52.178;5.404;2023-05-15T07:01:17;23.20;99.90
16785;DHT22;8509;52.178;5.404;2023-05-15T07:03:42;22.80;99.90
16785;DHT22;8509;52.178;5.404;2023-05-15T07:06:08;22.20;99.90
16785;DHT22;8509;52.178;5.404;2023-05-15T07:08:34;21.20;99.90
16785;DHT22;8509;52.178;5.404;2023-05-15T07:11:00;20.40;99.90
16785;DHT22;8509;52.178;5.404;2023-05-15T07:13:25;19.80;99.90
16785;DHT22;8509;52.178;5.404;2023-05-15T07:15:51;19.10;99.90
16785;DHT22;8509;52.178;5.404;2023-05-15T07:18:18;18.50;99.90
16785;DHT22;8509;52.178;5.404;2023-05-15T07:20:43;18.50;99.90
16785;DHT22;8509;52.178;5.404;2023-05-15T07:23:09;18.70;99.90
16785;DHT22;8509;52.178;5.404;2023-05-15T07:25:35;18.80;99.90
16785;DHT22;8509;52.178;5.404;2023-05-15T07:28:00;19.00;99.90
16785;DHT22;8509;52.178;5.404;2023-05-15T07:30:26;19.20;99.90
16785;DHT22;8509;52.178;5.404;2023-05-15T07:32:52;19.30;99.90
16785;DHT22;8509;52.178;5.404;2023-05-15T07:35:17;19.10;99.90
16785;DHT22;8509;52.178;5.404;2023-05-15T07:37:43;19.50;99.90
16785;DHT22;8509;52.178;5.404;2023-05-15T07:40:09;18.70;99.90
16785;DHT22;8509;52.178;5.404;2023-05-15T07:42:34;18.90;99.90
16785;DHT22;8509;52.178;5.404;2023-05-15T07:45:00;20.10;99.90
16785;DHT22;8509;52.178;5.404;2023-05-15T07:47:26;21.40;99.90
16785;DHT22;8509;52.178;5.404;2023-05-15T07:49:51;21.50;99.90
16785;DHT22;8509;52.178;5.404;2023-05-15T07:52:17;21.90;99.90
16785;DHT22;8509;52.178;5.404;2023-05-15T07:54:43;21.70;99.90
16785;DHT22;8509;52.178;5.404;2023-05-15T07:57:08;21.70;99.90
16785;DHT22;8509;52.178;5.404;2023-05-15T07:59:35;21.30;99.90
16785;DHT22;8509;52.178;5.404;2023-05-15T08:02:01;21.50;99.90
16785;DHT22;8509;52.178;5.404;2023-05-15T08:04:26;22.30;99.90
16785;DHT22;8509;52.178;5.404;2023-05-15T08:06:52;23.60;99.90
16785;DHT22;8509;52.178;5.404;2023-05-15T08:09:18;24.10;99.90
16785;DHT22;8509;52.178;5.404;2023-05-15T08:11:43;23.90;99.90
16785;DHT22;8509;52.178;5.404;2023-05-15T08:14:09;24.40;99.90
16785;DHT22;8509;52.178;5.404;2023-05-15T08:16:35;24.80;99.90
16785;DHT22;8509;52.178;5.404;2023-05-15T08:19:01;24.80;99.90
16785;DHT22;8509;52.178;5.404;2023-05-15T08:21:29;24.90;99.90
16785;DHT22;8509;52.178;5.404;2023-05-15T08:23:56;25.30;99.90
16785;DHT22;8509;52.178;5.404;2023-05-15T08:26:21;25.40;99.90
16785;DHT22;8509;52.178;5.404;2023-05-15T08:28:48;24.50;99.90
16785;DHT22;8509;52.178;5.404;2023-05-15T08:31:13;24.30;99.90
16785;DHT22;8509;52.178;5.404;2023-05-15T08:33:39;24.10;99.90
16785;DHT22;8509;52.178;5.404;2023-05-15T08:36:06;24.10;99.90
16785;DHT22;8509;52.178;5.404;2023-05-15T08:38:32;23.80;99.90
16785;DHT22;8509;52.178;5.404;2023-05-15T08:41:03;23.80;99.90
16785;DHT22;8509;52.178;5.404;2023-05-15T08:43:33;23.10;99.90
16785;DHT22;8509;52.178;5.404;2023-05-15T08:46:01;23.00;99.90
16785;DHT22;8509;52.178;5.404;2023-05-15T08:48:28;23.10;99.90
16785;DHT22;8509;52.178;5.404;2023-05-15T08:50:56;23.00;99.90
16785;DHT22;8509;52.178;5.404;2023-05-15T08:53:22;22.80;99.90
16785;DHT22;8509;52.178;5.404;2023-05-15T08:55:48;22.40;99.90
16785;DHT22;8509;52.178;5.404;2023-05-15T08:58:14;22.70;99.90
16785;DHT22;8509;52.178;5.404;2023-05-15T09:00:41;22.20;99.90
16785;DHT22;8509;52.178;5.404;2023-05-15T09:03:13;22.00;99.90
16785;DHT22;8509;52.178;5.404;2023-05-15T09:05:40;22.20;99.90
16785;DHT22;8509;52.178;5.404;2023-05-15T09:08:07;22.60;99.90
16785;DHT22;8509;52.178;5.404;2023-05-15T09:10:33;23.10;99.90
16785;DHT22;8509;52.178;5.404;2023-05-15T09:13:02;23.00;99.90
16785;DHT22;8509;52.178;5.404;2023-05-15T09:15:31;22.40;99.90
16785;DHT22;8509;52.178;5.404;2023-05-15T09:17:57;22.40;99.90
16785;DHT22;8509;52.178;5.404;2023-05-15T09:20:34;22.40;99.90
16785;DHT22;8509;52.178;5.404;2023-05-15T09:23:02;21.60;99.90
16785;DHT22;8509;52.178;5.404;2023-05-15T09:25:42;21.50;99.90
16785;DHT22;8509;52.178;5.404;2023-05-15T09:28:22;22.00;99.90
16785;DHT22;8509;52.178;5.404;2023-05-15T09:30:48;22.10;99.90
16785;DHT22;8509;52.178;5.404;2023-05-15T09:33:16;22.30;99.90
16785;DHT22;8509;52.178;5.404;2023-05-15T09:35:41;22.60;99.90
16785;DHT22;8509;52.178;5.404;2023-05-15T09:38:11;22.90;99.90
16785;DHT22;8509;52.178;5.404;2023-05-15T09:40:38;23.00;99.90
16785;DHT22;8509;52.178;5.404;2023-05-15T09:43:05;23.40;99.90
16785;DHT22;8509;52.178;5.404;2023-05-15T09:45:30;22.70;99.90
16785;DHT22;8509;52.178;5.404;2023-05-15T09:47:58;23.20;99.90
16785;DHT22;8509;52.178;5.404;2023-05-15T09:50:36;23.50;99.90
16785;DHT22;8509;52.178;5.404;2023-05-15T09:53:02;23.70;99.90
16785;DHT22;8509;52.178;5.404;2023-05-15T09:55:31;23.40;99.90
16785;DHT22;8509;52.178;5.404;2023-05-15T09:58:07;23.40;99.90
16785;DHT22;8509;52.178;5.404;2023-05-15T10:00:35;23.20;99.90
16785;DHT22;8509;52.178;5.404;2023-05-15T10:03:02;23.00;99.90
16785;DHT22;8509;52.178;5.404;2023-05-15T10:05:28;22.80;99.90
16785;DHT22;8509;52.178;5.404;2023-05-15T10:07:55;22.10;99.90
16785;DHT22;8509;52.178;5.404;2023-05-15T10:10:22;21.80;99.90
16785;DHT22;8509;52.178;5.404;2023-05-15T10:12:52;21.60;99.90
16785;DHT22;8509;52.178;5.404;2023-05-15T10:15:19;21.00;99.90
16785;DHT22;8509;52.178;5.404;2023-05-15T10:17:49;20.70;99.90
16785;DHT22;8509;52.178;5.404;2023-05-15T10:20:16;20.50;99.90
16785;DHT22;8509;52.178;5.404;2023-05-15T10:22:47;20.40;99.90
16785;DHT22;8509;52.178;5.404;2023-05-15T10:28:00;20.20;99.90
16785;DHT22;8509;52.178;5.404;2023-05-15T10:30:27;20.10;99.90
16785;DHT22;8509;52.178;5.404;2023-05-15T10:32:54;20.10;99.90
16785;DHT22;8509;52.178;5.404;2023-05-15T10:35:20;20.10;99.90
16785;DHT22;8509;52.178;5.404;2023-05-15T10:37:47;20.00;99.90
16785;DHT22;8509;52.178;5.404;2023-05-15T10:40:15;20.00;99.90
16785;DHT22;8509;52.178;5.404;2023-05-15T10:42:42;20.00;99.90
16785;DHT22;8509;52.178;5.404;2023-05-15T10:45:09;19.70;99.90
16785;DHT22;8509;52.178;5.404;2023-05-15T10:47:36;19.60;99.90
16785;DHT22;8509;52.178;5.404;2023-05-15T10:50:03;19.70;99.90
16785;DHT22;8509;52.178;5.404;2023-05-15T10:52:31;19.80;99.90
16785;DHT22;8509;52.178;5.404;2023-05-15T10:54:58;19.70;99.90
16785;DHT22;8509;52.178;5.404;2023-05-15T10:57:24;19.60;99.90
16785;DHT22;8509;52.178;5.404;2023-05-15T10:59:50;19.40;99.90
16785;DHT22;8509;52.178;5.404;2023-05-15T11:02:26;19.10;99.90
16785;DHT22;8509;52.178;5.404;2023-05-15T11:05:00;19.10;99.90
16785;DHT22;8509;52.178;5.404;2023-05-15T11:07:27;19.00;99.90
16785;DHT22;8509;52.178;5.404;2023-05-15T11:09:54;19.00;99.90
16785;DHT22;8509;52.178;5.404;2023-05-15T11:12:21;19.30;99.90
16785;DHT22;8509;52.178;5.404;2023-05-15T11:17:25;19.60;99.90
16785;DHT22;8509;52.178;5.404;2023-05-15T11:22:17;19.80;99.90
16785;DHT22;8509;52.178;5.404;2023-05-15T11:24:47;19.90;99.90
16785;DHT22;8509;52.178;5.404;2023-05-15T11:27:32;19.90;99.90
16785;DHT22;8509;52.178;5.404;2023-05-15T11:32:41;19.30;99.90
16785;DHT22;8509;52.178;5.404;2023-05-15T11:40:30;18.70;99.90
16785;DHT22;8509;52.178;5.404;2023-05-15T11:43:15;18.60;99.90
16785;DHT22;8509;52.178;5.404;2023-05-15T11:45:42;18.70;99.90
16785;DHT22;8509;52.178;5.404;2023-05-15T11:48:12;18.80;99.90
16785;DHT22;8509;52.178;5.404;2023-05-15T11:50:39;19.20;99.90
16785;DHT22;8509;52.178;5.404;2023-05-15T11:53:07;19.50;99.90
16785;DHT22;8509;52.178;5.404;2023-05-15T11:55:37;19.80;99.90
16785;DHT22;8509;52.178;5.404;2023-05-15T11:58:05;20.00;99.90
16785;DHT22;8509;52.178;5.404;2023-05-15T12:00:35;20.20;99.90
16785;DHT22;8509;52.178;5.404;2023-05-15T12:03:01;20.40;99.90
16785;DHT22;8509;52.178;5.404;2023-05-15T12:05:28;20.40;99.90
16785;DHT22;8509;52.178;5.404;2023-05-15T12:07:55;20.20;99.90
16785;DHT22;8509;52.178;5.404;2023-05-15T12:10:21;20.20;99.90
16785;DHT22;8509;52.178;5.404;2023-05-15T12:12:48;20.40;99.90
16785;DHT22;8509;52.178;5.404;2023-05-15T12:15:16;20.40;99.90
16785;DHT22;8509;52.178;5.404;2023-05-15T12:17:43;20.40;99.90
16785;DHT22;8509;52.178;5.404;2023-05-15T12:20:17;20.60;99.90
16785;DHT22;8509;52.178;5.404;2023-05-15T12:22:43;20.90;99.90
16785;DHT22;8509;52.178;5.404;2023-05-15T12:25:14;20.90;99.90
16785;DHT22;8509;52.178;5.404;2023-05-15T12:27:40;20.80;99.90
16785;DHT22;8509;52.178;5.404;2023-05-15T12:30:06;21.10;99.90
16785;DHT22;8509;52.178;5.404;2023-05-15T12:32:33;21.50;99.90
16785;DHT22;8509;52.178;5.404;2023-05-15T12:35:00;21.60;99.90
16785;DHT22;8509;52.178;5.404;2023-05-15T12:37:26;21.90;99.90
16785;DHT22;8509;52.178;5.404;2023-05-15T12:39:54;22.10;99.90
16785;DHT22;8509;52.178;5.404;2023-05-15T12:42:20;22.30;99.90
16785;DHT22;8509;52.178;5.404;2023-05-15T12:44:49;22.50;99.90
16785;DHT22;8509;52.178;5.404;2023-05-15T12:47:21;22.40;99.90
16785;DHT22;8509;52.178;5.404;2023-05-15T12:49:48;22.50;99.90
16785;DHT22;8509;52.178;5.404;2023-05-15T12:52:14;22.60;99.90
16785;DHT22;8509;52.178;5.404;2023-05-15T12:54:40;22.20;99.90
16785;DHT22;8509;52.178;5.404;2023-05-15T12:57:07;21.90;99.90
16785;DHT22;8509;52.178;5.404;2023-05-15T12:59:33;21.50;99.90
16785;DHT22;8509;52.178;5.404;2023-05-15T13:01:59;21.70;99.90
16785;DHT22;8509;52.178;5.404;2023-05-15T13:04:25;21.70;99.90
16785;DHT22;8509;52.178;5.404;2023-05-15T13:06:51;22.00;99.90
16785;DHT22;8509;52.178;5.404;2023-05-15T13:09:21;22.20;99.90
16785;DHT22;8509;52.178;5.404;2023-05-15T13:11:47;22.10;99.90
16785;DHT22;8509;52.178;5.404;2023-05-15T13:14:16;22.10;99.90
16785;DHT22;8509;52.178;5.404;2023-05-15T13:16:44;22.40;99.90
16785;DHT22;8509;52.178;5.404;2023-05-15T13:19:11;22.40;99.90
16785;DHT22;8509;52.178;5.404;2023-05-15T13:21:36;22.60;99.90
16785;DHT22;8509;52.178;5.404;2023-05-15T13:24:02;22.50;99.90
16785;DHT22;8509;52.178;5.404;2023-05-15T13:26:28;22.50;99.90
16785;DHT22;8509;52.178;5.404;2023-05-15T13:28:54;22.50;99.90
16785;DHT22;8509;52.178;5.404;2023-05-15T13:31:20;22.40;99.90
16785;DHT22;8509;52.178;5.404;2023-05-15T13:33:45;22.40;99.90
16785;DHT22;8509;52.178;5.404;2023-05-15T13:36:11;22.10;99.90
16785;DHT22;8509;52.178;5.404;2023-05-15T13:38:36;21.60;99.90
16785;DHT22;8509;52.178;5.404;2023-05-15T13:41:05;21.10;99.90
16785;DHT22;8509;52.178;5.404;2023-05-15T13:43:30;21.00;99.90
16785;DHT22;8509;52.178;5.404;2023-05-15T13:45:56;21.00;99.90
16785;DHT22;8509;52.178;5.404;2023-05-15T13:48:22;21.10;99.90
16785;DHT22;8509;52.178;5.404;2023-05-15T13:50:47;20.90;99.90
16785;DHT22;8509;52.178;5.404;2023-05-15T13:53:13;20.50;99.90
16785;DHT22;8509;52.178;5.404;2023-05-15T13:55:45;20.50;99.90
16785;DHT22;8509;52.178;5.404;2023-05-15T13:58:11;20.30;99.90
16785;DHT22;8509;52.178;5.404;2023-05-15T14:00:38;20.20;99.90
16785;DHT22;8509;52.178;5.404;2023-05-15T14:03:04;20.40;99.90
16785;DHT22;8509;52.178;5.404;2023-05-15T14:05:30;20.20;99.90
16785;DHT22;8509;52.178;5.404;2023-05-15T14:07:56;20.00;99.90
16785;DHT22;8509;52.178;5.404;2023-05-15T14:10:22;19.90;99.90
16785;DHT22;8509;52.178;5.404;2023-05-15T14:12:51;19.60;99.90
16785;DHT22;8509;52.178;5.404;2023-05-15T14:15:17;19.80;99.90
16785;DHT22;8509;52.178;5.404;2023-05-15T14:17:43;19.80;99.90
16785;DHT22;8509;52.178;5.404;2023-05-15T14:20:09;19.90;99.90
16785;DHT22;8509;52.178;5.404;2023-05-15T14:22:36;19.90;99.90
16785;DHT22;8509;52.178;5.404;2023-05-15T14:25:03;19.90;99.90
16785;DHT22;8509;52.178;5.404;2023-05-15T14:27:29;19.60;99.90
16785;DHT22;8509;52.178;5.404;2023-05-15T14:29:54;19.50;99.90
16785;DHT22;8509;52.178;5.404;2023-05-15T14:32:23;19.10;99.90
16785;DHT22;8509;52.178;5.404;2023-05-15T14:34:49;18.70;99.90
16785;DHT22;8509;52.178;5.404;2023-05-15T14:37:17;18.70;99.90
16785;DHT22;8509;52.178;5.404;2023-05-15T14:39:43;18.70;99.90
16785;DHT22;8509;52.178;5.404;2023-05-15T14:42:09;18.40;99.90
16785;DHT22;8509;52.178;5.404;2023-05-15T14:44:35;18.40;99.90
16785;DHT22;8509;52.178;5.404;2023-05-15T14:47:08;18.10;99.90
16785;DHT22;8509;52.178;5.404;2023-05-15T14:49:35;18.00;99.90
16785;DHT22;8509;52.178;5.404;2023-05-15T14:52:01;18.10;99.90
16785;DHT22;8509;52.178;5.404;2023-05-15T14:54:27;17.90;99.90
16785;DHT22;8509;52.178;5.404;2023-05-15T14:56:53;17.70;99.90
16785;DHT22;8509;52.178;5.404;2023-05-15T14:59:19;17.50;99.90
16785;DHT22;8509;52.178;5.404;2023-05-15T15:01:44;17.50;99.90
16785;DHT22;8509;52.178;5.404;2023-05-15T15:04:11;17.60;99.90
16785;DHT22;8509;52.178;5.404;2023-05-15T15:06:36;17.40;99.90
16785;DHT22;8509;52.178;5.404;2023-05-15T15:09:02;17.30;99.90
16785;DHT22;8509;52.178;5.404;2023-05-15T15:11:28;17.20;99.90
16785;DHT22;8509;52.178;5.404;2023-05-15T15:13:55;17.40;99.90
16785;DHT22;8509;52.178;5.404;2023-05-15T15:16:20;17.50;99.90
16785;DHT22;8509;52.178;5.404;2023-05-15T15:18:46;17.60;99.90
16785;DHT22;8509;52.178;5.404;2023-05-15T15:21:12;17.90;99.90
16785;DHT22;8509;52.178;5.404;2023-05-15T15:23:37;17.80;99.90
16785;DHT22;8509;52.178;5.404;2023-05-15T15:26:03;17.50;99.90
16785;DHT22;8509;52.178;5.404;2023-05-15T15:28:29;17.60;99.90
16785;DHT22;8509;52.178;5.404;2023-05-15T15:30:58;17.80;99.90
16785;DHT22;8509;52.178;5.404;2023-05-15T15:33:24;17.80;99.90
16785;DHT22;8509;52.178;5.404;2023-05-15T15:35:50;17.60;99.90
16785;DHT22;8509;52.178;5.404;2023-05-15T15:38:16;17.50;99.90
16785;DHT22;8509;52.178;5.404;2023-05-15T15:40:41;17.40;99.90
16785;DHT22;8509;52.178;5.404;2023-05-15T15:43:07;17.40;99.90
16785;DHT22;8509;52.178;5.404;2023-05-15T15:45:33;17.10;99.90
16785;DHT22;8509;52.178;5.404;2023-05-15T15:47:58;16.90;99.90
16785;DHT22;8509;52.178;5.404;2023-05-15T15:50:24;16.80;99.90
16785;DHT22;8509;52.178;5.404;2023-05-15T15:52:50;16.80;99.90
16785;DHT22;8509;52.178;5.404;2023-05-15T15:55:15;16.90;99.90
16785;DHT22;8509;52.178;5.404;2023-05-15T15:57:41;16.70;99.90
16785;DHT22;8509;52.178;5.404;2023-05-15T16:00:07;16.80;99.90
16785;DHT22;8509;52.178;5.404;2023-05-15T16:02:33;16.80;99.90
16785;DHT22;8509;52.178;5.404;2023-05-15T16:04:59;16.70;99.90
16785;DHT22;8509;52.178;5.404;2023-05-15T16:07:25;16.70;99.90
16785;DHT22;8509;52.178;5.404;2023-05-15T16:09:51;16.60;99.90
16785;DHT22;8509;52.178;5.404;2023-05-15T16:12:17;16.40;99.90